Stonewall, Louisiana
Current Conditions -  °F | °C
As of 2:05 PM on Friday 21 Nov 2014 (Local Time) from KSHV Reporting Station
Light Rain Light Rain  
Wind Chill: 59°   Ceiling: 6000
Heat Index: 59°   Visibility: 4mi
Dew Point: 58°   Wind: 5mph
Humidity: 96%   Direction: 120°ESE
Pressure: 30.15"   Gusts: NA
Location:  32.28°N, 93.82°W
Report Text: KSHV 212005Z 12004KT 4SM -RA BR FEW033 OVC060 15/14 A3015 RMK AO2 P0001 T01500144
Loading
Personal Weather Stations






























Interactive Weather Map New forecast layout! Learn more

10-Day Weather Forecast

Advertisements
Track Severe Weather on mobile